Time;durP1;ratioP1;P1;durP2;ratioP2;P2;SDS_P1;SDS_P2;PMS_P1;PMS_P2;Temp;Humidity;BMP_temperature;BMP_pressure;BME280_temperature;BME280_humidity;BME280_pressure;Samples;Min_cycle;Max_cycle;Signal;HPM_P1;HPM_P2
2021/11/28 00:09:41;;;;;;;13.05;4.75;;;4.00;99.90;;;;;;20988709;28;20392;-44
2021/11/28 00:19:37;;;;;;;19.55;5.68;;;4.10;99.90;;;;;;20989375;28;20041;-44
2021/11/28 00:29:38;;;;;;;18.90;5.20;;;4.10;99.90;;;;;;20980294;28;20388;-45
2021/11/28 00:39:41;;;;;;;14.00;4.80;;;4.10;99.90;;;;;;20980235;28;20048;-45
2021/11/28 00:49:51;;;;;;;14.70;4.50;;;4.10;99.90;;;;;;20979966;28;20043;-44
2021/11/28 00:59:53;;;;;;;13.70;4.50;;;4.00;99.90;;;;;;20978203;28;20556;-45
2021/11/28 01:09:55;;;;;;;15.60;4.65;;;4.00;99.90;;;;;;20981255;28;20032;-44
2021/11/28 01:19:58;;;;;;;15.07;4.60;;;4.00;99.90;;;;;;20965961;28;20515;-45
2021/11/28 01:29:59;;;;;;;11.82;4.65;;;4.10;99.90;;;;;;20977048;28;20032;-44
2021/11/28 01:40:05;;;;;;;18.75;5.20;;;4.00;99.90;;;;;;20976587;28;20047;-44
2021/11/28 01:50:07;;;;;;;14.95;5.20;;;4.00;99.90;;;;;;20971864;28;20037;-44
2021/11/28 02:00:12;;;;;;;14.73;4.82;;;4.10;99.90;;;;;;20974065;28;20040;-44
2021/11/28 02:10:15;;;;;;;12.27;4.07;;;4.10;99.90;;;;;;20961573;28;20032;-44
2021/11/28 02:20:18;;;;;;;15.85;5.75;;;4.10;99.90;;;;;;20981792;28;20095;-44
2021/11/28 02:30:20;;;;;;;19.63;4.72;;;4.10;99.90;;;;;;20978001;28;20044;-44
2021/11/28 02:40:23;;;;;;;13.35;6.35;;;4.20;99.90;;;;;;20978528;28;20371;-44
2021/11/28 02:50:24;;;;;;;18.17;5.70;;;4.10;99.90;;;;;;20974336;28;20052;-44
2021/11/28 03:00:28;;;;;;;18.55;6.50;;;4.10;99.90;;;;;;20974943;28;20504;-44
2021/11/28 03:10:39;;;;;;;20.00;6.47;;;4.10;99.90;;;;;;20989160;28;20373;-45
2021/11/28 03:20:41;;;;;;;20.33;7.32;;;4.10;99.90;;;;;;20986334;28;20395;-44
2021/11/28 03:40:53;;;;;;;17.70;4.32;;;4.20;99.90;;;;;;20962211;23;20173;-44
2021/11/28 03:50:54;;;;;;;13.75;4.75;;;4.20;99.90;;;;;;20663434;28;20371;-44
2021/11/28 04:00:57;;;;;;;14.57;4.78;;;4.10;99.90;;;;;;20661112;28;20045;-44
2021/11/28 04:10:59;;;;;;;13.90;4.80;;;4.00;99.90;;;;;;20664020;28;20049;-44
2021/11/28 04:21:00;;;;;;;12.45;3.58;;;4.00;99.90;;;;;;20659886;28;20038;-44
2021/11/28 04:31:01;;;;;;;16.52;3.92;;;3.70;99.90;;;;;;20662297;28;20034;-44
2021/11/28 04:41:03;;;;;;;13.77;4.50;;;3.60;99.90;;;;;;20657901;28;20407;-44
2021/11/28 04:51:04;;;;;;;13.07;4.22;;;3.70;99.90;;;;;;20659467;28;20041;-44
2021/11/28 05:01:05;;;;;;;12.20;3.38;;;3.70;99.90;;;;;;20659041;28;20041;-44
2021/11/28 05:11:06;;;;;;;16.15;4.65;;;3.50;99.90;;;;;;20654880;28;20045;-44
2021/11/28 05:21:07;;;;;;;10.82;3.55;;;3.30;99.90;;;;;;20657428;28;20486;-44
2021/11/28 05:31:11;;;;;;;10.18;3.80;;;3.10;99.90;;;;;;20655622;28;20057;-44
2021/11/28 05:41:13;;;;;;;15.15;4.07;;;2.90;99.90;;;;;;20656163;28;20455;-44
2021/11/28 05:51:14;;;;;;;13.88;4.18;;;2.80;99.90;;;;;;20655236;28;20045;-44
2021/11/28 06:01:16;;;;;;;9.68;2.85;;;2.70;99.90;;;;;;20656502;28;20296;-44
2021/11/28 06:11:17;;;;;;;12.13;3.72;;;2.60;99.90;;;;;;20659831;28;20034;-44
2021/11/28 06:21:19;;;;;;;12.63;3.55;;;2.40;99.90;;;;;;20649155;28;20165;-44
2021/11/28 06:31:20;;;;;;;8.15;2.38;;;2.30;99.90;;;;;;20654507;28;20043;-44
2021/11/28 06:41:25;;;;;;;10.88;3.67;;;2.30;99.90;;;;;;20659192;28;20535;-44
2021/11/28 06:51:27;;;;;;;9.50;2.80;;;2.20;99.90;;;;;;20673599;28;20044;-44
2021/11/28 07:01:28;;;;;;;11.45;3.47;;;2.30;99.90;;;;;;20615893;28;20034;-44
2021/11/28 07:11:29;;;;;;;8.55;2.65;;;2.50;99.90;;;;;;20652994;28;20037;-44
2021/11/28 07:21:32;;;;;;;10.10;2.70;;;2.50;99.90;;;;;;20670079;28;20034;-44
2021/11/28 07:31:33;;;;;;;11.57;3.88;;;2.40;99.90;;;;;;20669258;28;20038;-44
2021/11/28 07:41:36;;;;;;;12.43;3.75;;;2.50;99.90;;;;;;20668997;28;20077;-44
2021/11/28 07:51:38;;;;;;;9.35;3.13;;;2.60;99.90;;;;;;20665968;28;20422;-44
2021/11/28 08:01:40;;;;;;;7.15;2.70;;;2.70;99.90;;;;;;20676754;28;20046;-44
2021/11/28 08:11:41;;;;;;;11.98;4.68;;;2.80;99.90;;;;;;20657666;28;20508;-44
2021/11/28 08:21:42;;;;;;;16.40;4.25;;;3.10;99.90;;;;;;20675986;28;20042;-44
2021/11/28 08:31:46;;;;;;;18.52;4.32;;;3.30;99.90;;;;;;20671965;28;20592;-44
2021/11/28 08:41:47;;;;;;;11.25;3.80;;;3.40;99.90;;;;;;20672889;28;20398;-44
2021/11/28 08:51:48;;;;;;;14.40;4.30;;;3.50;99.90;;;;;;20667860;28;20041;-44
2021/11/28 09:01:49;;;;;;;10.73;4.95;;;3.80;99.90;;;;;;20629870;28;20572;-44
2021/11/28 09:11:50;;;;;;;17.45;4.18;;;3.80;99.90;;;;;;20666917;28;20041;-44
2021/11/28 09:21:52;;;;;;;8.73;2.92;;;3.90;99.90;;;;;;20669390;28;20041;-44
2021/11/28 09:31:53;;;;;;;11.52;4.00;;;3.90;99.90;;;;;;20665326;28;20469;-44
2021/11/28 09:42:02;;;;;;;9.45;2.90;;;4.00;99.90;;;;;;20662687;28;20053;-44
2021/11/28 09:52:08;;;;;;;1.55;0.45;;;4.10;99.90;;;;;;20626864;28;20382;-44
2021/11/28 10:02:18;;;;;;;4.13;0.10;;;4.30;99.90;;;;;;20651225;28;20496;-44
2021/11/28 10:12:23;;;;;;;0.00;0.00;;;4.40;99.90;;;;;;20658995;28;20262;-44
2021/11/28 10:22:25;;;;;;;0.00;0.00;;;4.20;99.90;;;;;;20676562;28;20045;-44
2021/11/28 10:32:26;;;;;;;0.55;0.00;;;4.20;99.90;;;;;;20656621;28;20046;-44
2021/11/28 10:42:33;;;;;;;0.25;0.10;;;4.20;99.90;;;;;;20675534;28;20046;-44
2021/11/28 10:52:48;;;;;;;1.03;0.10;;;4.20;99.90;;;;;;20675443;28;20518;-44
2021/11/28 11:02:49;;;;;;;0.00;0.00;;;4.20;99.90;;;;;;20673949;28;20033;-44
2021/11/28 11:12:54;;;;;;;0.30;0.20;;;4.30;99.90;;;;;;20676917;28;20137;-44
2021/11/28 11:22:55;;;;;;;0.30;0.10;;;4.30;99.90;;;;;;20633162;28;20409;-44
2021/11/28 11:33:01;;;;;;;0.55;0.10;;;4.30;99.90;;;;;;20671161;28;20042;-44
2021/11/28 11:43:03;;;;;;;0.10;0.00;;;4.30;99.90;;;;;;20671365;28;20048;-45
2021/11/28 11:53:05;;;;;;;0.73;0.20;;;4.20;99.90;;;;;;20670564;28;20053;-45
2021/11/28 12:03:20;;;;;;;0.25;0.00;;;4.00;99.90;;;;;;20667746;28;20065;-44
2021/11/28 12:13:26;;;;;;;2.17;0.05;;;4.00;99.90;;;;;;20670385;28;20466;-45
2021/11/28 12:23:43;;;;;;;2.53;0.30;;;4.00;99.90;;;;;;20676437;28;20038;-45
2021/11/28 12:33:53;;;;;;;0.17;0.00;;;4.10;99.90;;;;;;20681028;28;20060;-44
2021/11/28 12:44:07;;;;;;;1.77;0.20;;;4.10;99.90;;;;;;20670957;28;20045;-45
2021/11/28 12:54:08;;;;;;;0.25;0.05;;;4.20;99.90;;;;;;20669377;28;20039;-44
2021/11/28 13:04:38;;;;;;;0.32;0.10;;;4.20;99.90;;;;;;20659051;28;22158;-44
2021/11/28 13:14:44;;;;;;;0.80;0.28;;;4.30;99.90;;;;;;20659049;28;20050;-44
2021/11/28 13:24:47;;;;;;;0.20;0.10;;;4.40;99.90;;;;;;20656030;28;20038;-44
2021/11/28 13:34:49;;;;;;;0.20;0.00;;;4.40;99.90;;;;;;20629477;28;20038;-45
2021/11/28 13:44:50;;;;;;;0.70;0.22;;;4.30;99.90;;;;;;20668180;28;20052;-44
2021/11/28 13:54:51;;;;;;;1.35;0.50;;;4.40;99.90;;;;;;20671060;28;20048;-45
2021/11/28 14:05:08;;;;;;;1.35;0.40;;;4.40;99.90;;;;;;20658468;28;20038;-44
2021/11/28 14:15:11;;;;;;;0.98;0.40;;;4.40;99.90;;;;;;20662169;28;20038;-45
2021/11/28 14:25:19;;;;;;;1.55;0.50;;;4.60;99.90;;;;;;20654691;28;21364;-44
2021/11/28 14:35:22;;;;;;;2.78;0.93;;;4.70;99.90;;;;;;20649578;28;20062;-45
2021/11/28 14:45:24;;;;;;;0.82;0.28;;;5.00;99.90;;;;;;20652587;28;20373;-45
2021/11/28 14:55:25;;;;;;;2.35;0.80;;;4.90;99.90;;;;;;20653504;28;20053;-45
2021/11/28 15:05:27;;;;;;;1.60;0.55;;;4.70;99.90;;;;;;20668557;28;20512;-45
2021/11/28 15:15:28;;;;;;;3.47;1.10;;;4.50;99.90;;;;;;20670837;28;20042;-45
2021/11/28 15:25:31;;;;;;;3.13;1.00;;;4.20;99.90;;;;;;20675728;28;20033;-44
2021/11/28 15:35:33;;;;;;;2.97;0.90;;;4.00;99.90;;;;;;20667399;28;20042;-44
2021/11/28 15:45:34;;;;;;;3.25;0.82;;;3.70;99.90;;;;;;20672337;28;20042;-44
2021/11/28 15:55:35;;;;;;;3.40;0.90;;;3.50;99.90;;;;;;20662523;28;20050;-44
2021/11/28 16:05:37;;;;;;;2.78;0.88;;;3.30;99.90;;;;;;20658015;28;20046;-44
2021/11/28 16:15:39;;;;;;;2.95;1.27;;;3.00;99.90;;;;;;20663416;28;20039;-44
2021/11/28 16:25:41;;;;;;;7.15;2.30;;;2.90;99.90;;;;;;20661422;28;20038;-44
2021/11/28 16:35:43;;;;;;;4.65;2.05;;;2.70;99.90;;;;;;20655015;28;20054;-44
2021/11/28 16:45:45;;;;;;;2.55;1.20;;;2.70;99.90;;;;;;20664598;28;20544;-44
2021/11/28 16:55:46;;;;;;;4.07;1.35;;;2.60;99.90;;;;;;20662058;28;20045;-44
2021/11/28 17:05:48;;;;;;;3.08;1.67;;;2.50;99.90;;;;;;20660094;28;20030;-45
2021/11/28 17:15:49;;;;;;;4.55;1.90;;;2.40;99.90;;;;;;20669507;28;20064;-45
2021/11/28 17:25:52;;;;;;;9.05;2.00;;;2.30;99.90;;;;;;20678488;28;20042;-44
2021/11/28 17:35:53;;;;;;;4.32;1.67;;;2.20;99.90;;;;;;20672302;28;20045;-44
2021/11/28 17:45:55;;;;;;;5.50;2.40;;;2.10;99.90;;;;;;20676732;28;20030;-44
2021/11/28 17:55:56;;;;;;;4.60;2.20;;;2.00;99.90;;;;;;20685500;28;20486;-44
2021/11/28 18:05:57;;;;;;;4.53;1.67;;;1.90;99.90;;;;;;20680153;28;20034;-44
2021/11/28 18:15:59;;;;;;;5.32;1.92;;;1.90;99.90;;;;;;20682878;28;20601;-45
2021/11/28 18:26:00;;;;;;;5.40;1.75;;;1.80;99.90;;;;;;20682907;28;20038;-45
2021/11/28 18:36:01;;;;;;;2.90;1.45;;;1.60;99.90;;;;;;20685950;28;20068;-45
2021/11/28 18:46:03;;;;;;;3.05;1.35;;;1.60;99.90;;;;;;20699664;28;20044;-45
2021/11/28 18:56:04;;;;;;;4.68;1.88;;;1.60;99.90;;;;;;20706788;28;20065;-45
2021/11/28 19:06:06;;;;;;;6.28;2.15;;;1.50;99.90;;;;;;20688630;28;20034;-46
2021/11/28 19:16:09;;;;;;;6.35;2.67;;;1.50;99.90;;;;;;20663602;28;20236;-44
2021/11/28 19:26:10;;;;;;;5.00;2.38;;;1.40;99.90;;;;;;20681917;28;20052;-45
2021/11/28 19:36:12;;;;;;;8.02;2.50;;;1.30;99.90;;;;;;20691598;28;20065;-45
2021/11/28 19:46:13;;;;;;;2.90;1.13;;;1.40;99.90;;;;;;20688654;28;20121;-45
2021/11/28 19:56:14;;;;;;;2.25;1.25;;;1.30;99.90;;;;;;20689704;28;20049;-44
2021/11/28 20:06:15;;;;;;;8.43;2.25;;;1.30;99.90;;;;;;20640796;28;20039;-45
2021/11/28 20:16:16;;;;;;;5.15;2.08;;;1.40;99.90;;;;;;20671991;28;20042;-45
2021/11/28 20:26:19;;;;;;;10.65;2.72;;;1.40;99.90;;;;;;20691025;28;20593;-44
2021/11/28 20:36:20;;;;;;;2.47;1.60;;;1.50;99.90;;;;;;20687769;28;20062;-45
2021/11/28 20:46:21;;;;;;;6.22;1.98;;;1.60;99.90;;;;;;20688221;28;20041;-45
2021/11/28 20:56:24;;;;;;;3.30;1.50;;;1.70;99.90;;;;;;20689146;28;20042;-45
2021/11/28 21:06:27;;;;;;;1.50;0.63;;;1.80;99.90;;;;;;20681855;28;20038;-45
2021/11/28 21:16:29;;;;;;;4.43;1.23;;;1.90;99.90;;;;;;20684790;28;20045;-45
2021/11/28 21:26:30;;;;;;;2.50;0.70;;;2.00;99.90;;;;;;20685856;28;20052;-45
2021/11/28 21:36:31;;;;;;;1.77;0.30;;;1.90;99.90;;;;;;20676781;28;20037;-45
2021/11/28 21:46:33;;;;;;;3.53;0.38;;;2.00;99.90;;;;;;20679994;28;20034;-45
2021/11/28 21:56:36;;;;;;;2.88;0.30;;;2.20;99.90;;;;;;20672503;28;20037;-44
2021/11/28 22:06:37;;;;;;;0.35;0.10;;;2.30;99.90;;;;;;20675557;28;20041;-45
2021/11/28 22:16:38;;;;;;;1.48;0.32;;;2.40;99.90;;;;;;20664297;28;20056;-44
2021/11/28 22:26:40;;;;;;;4.35;0.60;;;2.40;99.90;;;;;;20666446;28;20055;-44
2021/11/28 22:36:41;;;;;;;0.15;0.08;;;2.40;99.90;;;;;;20665886;28;20050;-44
2021/11/28 22:46:42;;;;;;;0.50;0.30;;;2.50;99.90;;;;;;20662515;28;20940;-44
2021/11/28 22:56:43;;;;;;;0.05;0.05;;;2.40;99.90;;;;;;20660519;28;20042;-44
2021/11/28 23:06:45;;;;;;;0.10;0.00;;;2.50;99.90;;;;;;20628056;28;20486;-44
2021/11/28 23:16:47;;;;;;;0.40;0.10;;;2.50;99.90;;;;;;20642443;28;20050;-45
2021/11/28 23:26:48;;;;;;;0.28;0.10;;;2.40;99.90;;;;;;20659098;28;20062;-45
2021/11/28 23:36:49;;;;;;;6.97;0.32;;;2.30;99.90;;;;;;20644335;28;20037;-45
2021/11/28 23:46:50;;;;;;;0.28;0.03;;;2.30;99.90;;;;;;20657027;28;20045;-44
2021/11/28 23:56:54;;;;;;;0.63;0.03;;;2.20;99.90;;;;;;20661900;28;20050;-45
